Time;durP1;ratioP1;P1;durP2;ratioP2;P2;SDS_P1;SDS_P2;PMS_P1;PMS_P2;Temp;Humidity;BMP_temperature;BMP_pressure;BME280_temperature;BME280_humidity;BME280_pressure;Samples;Min_cycle;Max_cycle;Signal;HPM_P1;HPM_P2
2022/06/23 00:02:25;;;;;;;3.58;2.90;;;23.70;56.60;;;;;;5073955;28;20036;-39
2022/06/23 00:04:54;;;;;;;3.13;2.72;;;23.70;56.70;;;;;;5073629;28;20040;-37
2022/06/23 00:07:28;;;;;;;7.00;3.13;;;23.60;56.90;;;;;;5071963;28;20024;-38
2022/06/23 00:10:14;;;;;;;2.90;2.40;;;23.70;56.90;;;;;;5078726;28;20036;-37
2022/06/23 00:12:41;;;;;;;2.58;2.38;;;23.70;56.50;;;;;;5074828;28;20035;-39
2022/06/23 00:15:07;;;;;;;6.47;2.70;;;23.70;56.30;;;;;;5075207;28;20032;-38
2022/06/23 00:17:44;;;;;;;2.65;2.45;;;23.80;56.20;;;;;;5069205;28;20033;-38
2022/06/23 00:20:20;;;;;;;4.40;2.60;;;23.70;56.30;;;;;;5073332;28;20032;-38
2022/06/23 00:22:50;;;;;;;3.13;2.47;;;23.70;56.20;;;;;;5075049;28;20032;-38
2022/06/23 00:25:48;;;;;;;2.88;2.67;;;23.70;56.00;;;;;;5074131;28;20052;-37
2022/06/23 00:28:45;;;;;;;2.40;2.20;;;23.80;55.60;;;;;;5072232;28;20036;-38
2022/06/23 00:31:23;;;;;;;2.90;2.55;;;23.80;55.60;;;;;;5061732;28;20040;-36
2022/06/23 00:33:49;;;;;;;2.78;2.42;;;23.80;55.30;;;;;;5073913;28;20056;-37
2022/06/23 00:36:36;;;;;;;2.70;2.50;;;23.80;55.40;;;;;;5076701;28;20021;-37
2022/06/23 00:39:07;;;;;;;3.30;2.10;;;23.70;55.40;;;;;;5075871;28;20123;-37
2022/06/23 00:41:36;;;;;;;2.85;2.65;;;23.70;55.30;;;;;;5074318;28;20070;-37
2022/06/23 00:44:17;;;;;;;2.70;2.50;;;23.70;55.40;;;;;;5073189;28;20735;-37
2022/06/23 00:46:45;;;;;;;3.70;2.75;;;23.70;55.40;;;;;;5075872;28;20029;-37
2022/06/23 00:49:28;;;;;;;4.60;2.75;;;23.60;55.30;;;;;;5074241;28;20024;-37
2022/06/23 00:52:01;;;;;;;2.65;2.45;;;23.60;55.20;;;;;;5070627;28;20057;-37
2022/06/23 00:54:36;;;;;;;2.65;2.45;;;23.50;55.40;;;;;;5050078;28;20025;-37
2022/06/23 00:57:05;;;;;;;3.33;2.35;;;23.50;55.30;;;;;;5071700;28;20052;-37
2022/06/23 00:59:53;;;;;;;2.63;2.42;;;23.50;55.30;;;;;;5075798;28;20052;-38
2022/06/23 01:02:21;;;;;;;;;;;23.50;55.30;;;;;;5075068;28;20024;-37
2022/06/23 01:04:48;;;;;;;2.70;2.50;;;23.50;55.20;;;;;;5074394;28;19908;-37
2022/06/23 01:07:44;;;;;;;2.60;2.40;;;23.50;55.20;;;;;;5075801;28;20060;-37
2022/06/23 01:10:32;;;;;;;2.60;2.40;;;23.40;55.10;;;;;;5072921;28;20031;-37
2022/06/23 01:13:26;;;;;;;2.72;2.50;;;23.40;55.20;;;;;;5070226;28;20497;-38
2022/06/23 01:15:57;;;;;;;3.30;2.70;;;23.30;55.40;;;;;;5071911;28;20032;-39
2022/06/23 01:18:25;;;;;;;2.63;2.42;;;23.30;55.40;;;;;;5051955;28;20031;-38
2022/06/23 01:20:53;;;;;;;2.72;2.50;;;23.40;55.20;;;;;;5072677;28;20048;-38
2022/06/23 01:23:37;;;;;;;2.72;2.53;;;23.40;55.00;;;;;;5077846;28;20473;-38
2022/06/23 01:26:21;;;;;;;2.83;2.53;;;23.30;55.00;;;;;;5071179;28;20040;-37
2022/06/23 01:28:47;;;;;;;2.60;2.40;;;23.30;55.00;;;;;;5076428;28;20029;-38
2022/06/23 01:31:21;;;;;;;2.83;2.63;;;23.30;55.00;;;;;;5053846;28;20035;-38
2022/06/23 01:34:09;;;;;;;2.67;2.47;;;23.30;55.10;;;;;;5059778;28;20060;-38
2022/06/23 01:36:42;;;;;;;2.50;2.30;;;23.30;55.00;;;;;;5074584;28;20029;-37
2022/06/23 01:39:29;;;;;;;3.55;2.50;;;23.20;55.00;;;;;;5068431;28;20075;-38
2022/06/23 01:42:31;;;;;;;2.88;2.65;;;23.20;55.10;;;;;;5072801;28;20051;-38
2022/06/23 01:45:15;;;;;;;2.75;2.53;;;23.20;55.00;;;;;;5046340;28;20374;-38
2022/06/23 01:47:55;;;;;;;2.70;2.50;;;23.20;55.00;;;;;;5075201;28;20155;-37
2022/06/23 01:51:03;;;;;;;2.67;2.47;;;23.20;54.90;;;;;;5074322;28;20029;-37
2022/06/23 01:53:33;;;;;;;2.72;2.53;;;23.20;54.90;;;;;;4996638;28;20026;-37
2022/06/23 01:56:27;;;;;;;2.65;2.45;;;23.10;55.00;;;;;;4979974;28;20587;-37
2022/06/23 01:59:10;;;;;;;2.30;2.10;;;23.00;55.00;;;;;;4979842;28;20030;-37
2022/06/23 02:01:53;;;;;;;2.42;2.22;;;23.00;55.10;;;;;;4994896;28;20081;-40
2022/06/23 02:04:24;;;;;;;2.65;2.45;;;22.90;55.20;;;;;;4992115;28;20027;-36
2022/06/23 02:06:54;;;;;;;3.00;2.70;;;22.90;55.30;;;;;;4989203;28;20134;-38
2022/06/23 02:09:46;;;;;;;2.97;2.78;;;22.90;55.20;;;;;;4995067;28;20030;-38
2022/06/23 02:12:34;;;;;;;2.50;2.30;;;22.80;55.10;;;;;;4970208;28;20042;-38
2022/06/23 02:15:30;;;;;;;2.85;2.63;;;22.80;55.20;;;;;;4981607;28;20049;-37
2022/06/23 02:18:24;;;;;;;2.85;2.65;;;22.70;55.30;;;;;;4984914;28;20117;-38
2022/06/23 02:21:26;;;;;;;2.72;2.53;;;22.70;55.20;;;;;;4999518;28;20230;-38
2022/06/23 02:24:25;;;;;;;2.65;2.45;;;22.70;55.20;;;;;;4942316;29;20032;-38
2022/06/23 02:26:55;;;;;;;2.25;2.13;;;22.60;55.20;;;;;;4951331;28;20438;-38
2022/06/23 02:29:31;;;;;;;2.78;2.58;;;22.50;55.40;;;;;;5006281;28;20049;-38
2022/06/23 02:32:25;;;;;;;2.70;2.50;;;22.50;55.50;;;;;;5017211;28;20038;-38
2022/06/23 02:35:00;;;;;;;3.05;2.75;;;22.50;55.30;;;;;;5003044;28;20855;-38
2022/06/23 02:37:48;;;;;;;2.95;2.70;;;22.50;55.30;;;;;;4986775;28;20093;-38
2022/06/23 02:40:34;;;;;;;2.63;2.42;;;22.50;55.30;;;;;;5017667;28;20069;-38
2022/06/23 02:43:13;;;;;;;2.58;2.38;;;22.40;55.40;;;;;;5010231;28;20073;-38
2022/06/23 02:46:03;;;;;;;2.92;2.63;;;22.40;55.40;;;;;;5017011;28;20101;-38
2022/06/23 02:48:48;;;;;;;2.80;2.47;;;22.50;55.50;;;;;;5019360;28;20041;-38
2022/06/23 02:51:14;;;;;;;2.90;2.60;;;22.40;55.50;;;;;;5019942;28;20034;-38
2022/06/23 02:53:52;;;;;;;2.85;2.63;;;22.30;55.40;;;;;;5019889;28;20030;-38
2022/06/23 02:56:29;;;;;;;2.97;2.67;;;22.30;55.60;;;;;;5019662;28;20492;-38
2022/06/23 02:59:10;;;;;;;2.67;2.47;;;22.30;55.40;;;;;;5072124;28;20032;-38
2022/06/23 03:01:44;;;;;;;2.85;2.60;;;22.30;55.40;;;;;;5080065;28;20035;-38
2022/06/23 03:04:23;;;;;;;2.67;2.47;;;22.30;55.40;;;;;;5074374;28;20046;-38
2022/06/23 03:06:54;;;;;;;2.38;2.10;;;22.20;55.30;;;;;;5075783;28;20059;-38
2022/06/23 03:09:28;;;;;;;2.80;2.60;;;22.20;55.30;;;;;;5069587;28;20044;-38
2022/06/23 03:12:11;;;;;;;3.05;2.80;;;22.20;55.30;;;;;;5073755;28;20028;-38
2022/06/23 03:15:05;;;;;;;3.05;2.72;;;22.10;55.50;;;;;;5076380;28;20044;-38
2022/06/23 03:17:34;;;;;;;2.78;2.45;;;22.10;55.50;;;;;;5072593;28;20047;-37
2022/06/23 03:20:04;;;;;;;2.70;2.50;;;22.10;55.60;;;;;;5073442;28;20032;-38
2022/06/23 03:22:55;;;;;;;3.53;2.60;;;22.00;55.50;;;;;;5079501;28;20040;-37
2022/06/23 03:25:24;;;;;;;2.70;2.50;;;22.00;55.40;;;;;;5070935;28;20041;-38
2022/06/23 03:28:08;;;;;;;2.60;2.40;;;22.00;55.40;;;;;;5076976;28;20093;-38
2022/06/23 03:30:43;;;;;;;2.55;2.35;;;22.00;55.40;;;;;;5078878;28;20063;-38
2022/06/23 03:33:20;;;;;;;2.80;2.50;;;21.90;55.50;;;;;;5075512;28;20025;-39
2022/06/23 03:36:03;;;;;;;2.72;2.53;;;21.90;55.50;;;;;;5074992;28;20544;-38
2022/06/23 03:41:39;;;;;;;2.65;2.45;;;21.80;55.50;;;;;;5077847;28;20031;-38
2022/06/23 03:44:20;;;;;;;2.47;2.28;;;21.80;55.60;;;;;;5076757;28;20036;-38
2022/06/23 03:47:03;;;;;;;2.95;2.60;;;21.80;55.60;;;;;;5074018;28;20041;-38
2022/06/23 03:50:06;;;;;;;2.55;2.35;;;21.80;55.60;;;;;;5074972;28;20098;-38
2022/06/23 03:52:54;;;;;;;2.88;2.67;;;21.70;55.70;;;;;;5017896;28;20049;-39
2022/06/23 03:55:37;;;;;;;;;;;21.70;55.70;;;;;;5002506;28;20046;-38
2022/06/23 03:58:42;;;;;;;2.90;2.60;;;21.60;55.70;;;;;;5046702;28;19914;-38
2022/06/23 04:01:12;;;;;;;2.78;2.58;;;21.60;55.80;;;;;;4986519;28;20047;-38
2022/06/23 04:03:45;;;;;;;2.72;2.53;;;21.60;55.90;;;;;;4994024;28;20034;-38
2022/06/23 04:06:19;;;;;;;3.17;2.80;;;21.50;55.80;;;;;;4999338;28;20046;-38
2022/06/23 04:08:48;;;;;;;3.00;2.70;;;21.60;55.90;;;;;;4996186;28;20030;-39
2022/06/23 04:14:02;;;;;;;2.67;2.47;;;21.50;55.90;;;;;;4998053;28;20683;-38
2022/06/23 04:16:28;;;;;;;2.83;2.63;;;21.50;55.90;;;;;;4998583;28;20150;-38
2022/06/23 04:18:54;;;;;;;2.50;2.30;;;21.50;55.90;;;;;;4959972;28;20042;-38
2022/06/23 04:21:23;;;;;;;3.20;2.90;;;21.40;56.00;;;;;;4983082;28;20921;-37
2022/06/23 04:23:50;;;;;;;2.63;2.42;;;21.40;56.00;;;;;;4960508;28;20038;-38
2022/06/23 04:26:19;;;;;;;3.45;2.72;;;21.40;55.90;;;;;;4981175;28;20068;-37
2022/06/23 04:28:53;;;;;;;3.10;2.80;;;21.40;56.00;;;;;;5012959;28;20029;-38
2022/06/23 04:31:27;;;;;;;2.90;2.70;;;21.30;55.90;;;;;;5029901;28;20096;-38
2022/06/23 04:33:54;;;;;;;2.92;2.60;;;21.30;55.90;;;;;;5074651;28;20582;-38
2022/06/23 04:36:28;;;;;;;2.72;2.53;;;21.30;55.80;;;;;;5078596;28;20088;-36
2022/06/23 04:39:08;;;;;;;2.88;2.67;;;21.20;55.90;;;;;;5076892;28;20088;-38
2022/06/23 04:42:13;;;;;;;3.10;2.80;;;21.20;55.90;;;;;;5053411;28;20182;-38
2022/06/23 04:44:45;;;;;;;2.70;2.50;;;21.10;55.90;;;;;;4980738;28;20055;-38
2022/06/23 04:47:16;;;;;;;2.72;2.45;;;21.20;55.90;;;;;;4980701;28;20049;-37
2022/06/23 04:49:54;;;;;;;2.63;2.40;;;21.10;55.90;;;;;;4998240;28;20027;-37
2022/06/23 04:52:26;;;;;;;;;;;21.10;55.90;;;;;;4984140;28;20723;-37
2022/06/23 04:55:13;;;;;;;2.88;2.65;;;21.00;55.90;;;;;;4997921;28;19913;-37
2022/06/23 04:58:11;;;;;;;2.90;2.70;;;21.00;55.90;;;;;;4980288;28;20065;-37
2022/06/23 05:00:44;;;;;;;3.00;2.60;;;21.00;56.00;;;;;;4982071;28;20081;-37
2022/06/23 05:03:32;;;;;;;2.70;2.50;;;20.90;56.00;;;;;;4994784;28;20034;-38
2022/06/23 05:06:14;;;;;;;2.85;2.65;;;20.90;56.10;;;;;;4998264;28;20042;-37
2022/06/23 05:08:41;;;;;;;2.40;2.20;;;20.90;56.10;;;;;;4980906;28;20034;-37
2022/06/23 05:11:28;;;;;;;2.92;2.72;;;20.90;56.10;;;;;;4977798;28;20027;-37
2022/06/23 05:13:57;;;;;;;3.30;3.00;;;20.90;56.10;;;;;;4983598;28;20106;-38
2022/06/23 05:16:28;;;;;;;3.70;2.55;;;20.90;56.00;;;;;;4998422;28;20037;-37
2022/06/23 05:18:55;;;;;;;2.75;2.50;;;20.90;56.20;;;;;;4979801;28;20092;-38
2022/06/23 05:21:28;;;;;;;2.67;2.47;;;20.90;56.30;;;;;;5074171;28;20041;-38
2022/06/23 05:23:59;;;;;;;2.75;2.55;;;21.00;56.40;;;;;;5073988;28;20863;-37
2022/06/23 05:26:39;;;;;;;3.00;2.65;;;21.00;56.50;;;;;;5049147;28;20069;-38
2022/06/23 05:29:13;;;;;;;3.55;2.88;;;20.90;56.60;;;;;;5079036;28;20029;-39
2022/06/23 05:31:39;;;;;;;3.25;2.95;;;20.80;56.40;;;;;;5077055;28;20138;-38
2022/06/23 05:34:24;;;;;;;3.00;2.70;;;20.80;56.40;;;;;;5073099;28;20033;-37
2022/06/23 05:37:13;;;;;;;2.80;2.50;;;20.90;56.60;;;;;;5070799;28;20044;-37
2022/06/23 05:39:47;;;;;;;2.80;2.60;;;20.90;56.80;;;;;;5071044;28;20036;-37
2022/06/23 05:42:23;;;;;;;2.60;2.40;;;20.90;56.90;;;;;;5077320;28;20059;-37
2022/06/23 05:44:59;;;;;;;3.15;2.85;;;20.90;56.80;;;;;;5074648;28;20032;-37
2022/06/23 05:47:27;;;;;;;3.03;2.72;;;20.80;56.70;;;;;;5076724;28;20543;-37
2022/06/23 05:49:56;;;;;;;3.50;2.53;;;20.80;56.50;;;;;;5077371;28;20025;-37
2022/06/23 05:52:30;;;;;;;3.10;2.80;;;20.90;56.50;;;;;;5076635;28;20024;-37
2022/06/23 05:55:02;;;;;;;3.13;2.83;;;20.90;56.60;;;;;;5077161;28;20032;-37
2022/06/23 05:57:34;;;;;;;2.80;2.50;;;21.00;56.80;;;;;;5081587;28;20032;-37
2022/06/23 06:00:07;;;;;;;2.97;2.67;;;21.00;56.90;;;;;;5074039;28;20054;-37
2022/06/23 06:02:48;;;;;;;2.88;2.67;;;20.90;57.00;;;;;;5074672;28;20033;-38
2022/06/23 06:05:35;;;;;;;3.22;2.95;;;20.90;56.90;;;;;;5073391;28;20055;-38
2022/06/23 06:08:04;;;;;;;2.83;2.63;;;20.80;56.80;;;;;;5077761;28;20031;-38
2022/06/23 06:10:30;;;;;;;2.80;2.60;;;20.90;56.80;;;;;;5078177;28;20029;-37
2022/06/23 06:12:56;;;;;;;3.10;2.70;;;20.90;56.90;;;;;;5077308;28;20028;-37
2022/06/23 06:15:27;;;;;;;2.75;2.55;;;20.90;57.20;;;;;;5079539;28;20846;-37
2022/06/23 06:17:56;;;;;;;2.92;2.63;;;21.00;57.40;;;;;;5080973;28;20186;-38
2022/06/23 06:20:23;;;;;;;2.53;2.30;;;21.00;57.40;;;;;;5077503;28;20029;-38
2022/06/23 06:22:58;;;;;;;2.97;2.50;;;21.00;57.60;;;;;;5080950;28;20028;-38
2022/06/23 06:25:32;;;;;;;2.72;2.45;;;21.00;57.60;;;;;;5077414;28;20092;-37
2022/06/23 06:28:23;;;;;;;2.53;2.33;;;21.10;57.70;;;;;;5073593;28;20029;-37
2022/06/23 06:31:15;;;;;;;2.42;2.22;;;21.10;57.80;;;;;;5073937;28;20041;-37
2022/06/23 06:33:59;;;;;;;2.40;2.20;;;21.10;57.80;;;;;;5068329;28;20033;-37
2022/06/23 06:36:36;;;;;;;2.30;2.10;;;21.10;58.00;;;;;;5073789;28;20027;-37
2022/06/23 06:39:05;;;;;;;2.93;2.63;;;21.00;58.20;;;;;;5076888;28;20035;-38
2022/06/23 06:41:31;;;;;;;2.92;2.72;;;21.00;57.90;;;;;;5074022;28;20769;-37
2022/06/23 06:43:57;;;;;;;3.50;3.20;;;21.00;57.80;;;;;;5080192;28;20035;-37
2022/06/23 06:46:24;;;;;;;2.85;2.60;;;20.90;57.60;;;;;;5077113;28;20048;-38
2022/06/23 06:48:50;;;;;;;3.00;2.70;;;21.00;57.60;;;;;;5078099;28;20063;-38
2022/06/23 06:51:23;;;;;;;3.03;2.80;;;21.00;57.80;;;;;;5078811;28;20039;-37
2022/06/23 06:54:20;;;;;;;2.85;2.65;;;21.00;58.00;;;;;;5079808;28;20020;-37
2022/06/23 06:56:54;;;;;;;2.50;2.30;;;21.00;58.00;;;;;;5062123;28;20068;-37
2022/06/23 06:59:51;;;;;;;3.40;2.88;;;21.00;58.70;;;;;;5080800;28;20036;-37
2022/06/23 07:02:28;;;;;;;3.03;2.42;;;21.00;58.30;;;;;;5076654;28;20032;-37
2022/06/23 07:05:16;;;;;;;3.13;2.83;;;21.00;58.40;;;;;;5104947;28;20077;-38
2022/06/23 07:07:43;;;;;;;2.70;2.50;;;21.00;58.50;;;;;;5089677;28;20085;-37
2022/06/23 07:10:25;;;;;;;2.70;2.50;;;21.00;58.60;;;;;;5050155;28;20421;-38
2022/06/23 07:12:56;;;;;;;2.47;2.28;;;21.00;58.70;;;;;;5087064;28;20038;-37
2022/06/23 07:15:30;;;;;;;2.60;2.40;;;21.10;58.80;;;;;;5103863;28;20065;-38
2022/06/23 07:18:15;;;;;;;3.35;2.60;;;21.10;58.70;;;;;;5085411;28;20024;-38
2022/06/23 07:21:03;;;;;;;2.50;2.30;;;21.10;58.80;;;;;;5063277;28;20036;-37
2022/06/23 07:23:41;;;;;;;4.03;2.17;;;21.10;58.90;;;;;;5071764;28;20029;-37
2022/06/23 07:26:33;;;;;;;2.03;1.90;;;21.10;58.80;;;;;;5083995;28;20060;-38
2022/06/23 07:29:08;;;;;;;2.25;2.05;;;21.20;58.90;;;;;;5082902;28;20027;-37
2022/06/23 07:32:00;;;;;;;2.20;2.00;;;21.30;58.90;;;;;;5080850;28;20036;-38
2022/06/23 07:34:26;;;;;;;2.13;1.90;;;21.20;58.90;;;;;;5093501;28;20021;-38
2022/06/23 07:36:57;;;;;;;1.85;1.65;;;21.30;58.90;;;;;;5059007;28;20032;-37
2022/06/23 07:39:29;;;;;;;2.72;2.17;;;21.30;59.00;;;;;;5071769;28;20144;-37
2022/06/23 07:42:04;;;;;;;2.20;2.00;;;21.30;59.10;;;;;;5071394;28;21937;-38
2022/06/23 07:44:55;;;;;;;2.13;1.92;;;21.30;59.10;;;;;;5088434;28;20085;-38
2022/06/23 07:47:21;;;;;;;2.13;1.88;;;21.30;59.20;;;;;;5075179;28;20135;-37
2022/06/23 07:49:47;;;;;;;2.10;1.90;;;21.40;59.30;;;;;;5078270;28;20055;-38
2022/06/23 07:52:14;;;;;;;2.08;1.88;;;21.40;59.20;;;;;;5084422;28;20068;-40
2022/06/23 07:54:42;;;;;;;1.70;1.60;;;21.50;59.00;;;;;;5065399;28;20028;-40
2022/06/23 07:57:09;;;;;;;;;;;21.50;58.90;;;;;;5080911;28;20036;-41
2022/06/23 07:59:58;;;;;;;1.92;1.73;;;21.50;58.90;;;;;;5094629;28;19965;-42
2022/06/23 08:02:31;;;;;;;2.67;2.22;;;21.50;58.90;;;;;;5072097;28;20564;-41
2022/06/23 08:05:00;;;;;;;2.28;2.00;;;21.50;58.90;;;;;;5081019;28;20092;-41
2022/06/23 08:07:26;;;;;;;3.58;2.38;;;21.50;58.90;;;;;;5083751;28;20032;-42
2022/06/23 08:09:54;;;;;;;4.32;3.53;;;21.50;59.00;;;;;;5081927;28;20063;-38
2022/06/23 08:18:37;;;;;;;4.30;3.25;;;21.40;58.50;;;;;;5101081;28;20498;-38
2022/06/23 08:21:04;;;;;;;4.63;2.95;;;21.40;58.60;;;;;;5076403;28;20040;-37
2022/06/23 08:23:33;;;;;;;4.00;2.92;;;21.40;58.60;;;;;;5104138;28;20024;-43
2022/06/23 08:26:00;;;;;;;5.68;3.50;;;21.50;58.70;;;;;;5080951;28;20071;-36
2022/06/23 08:28:26;;;;;;;4.00;3.50;;;21.50;58.70;;;;;;5083585;28;20028;-37
2022/06/23 08:30:52;;;;;;;4.28;3.30;;;21.40;58.50;;;;;;5080876;28;20092;-36
2022/06/23 08:33:18;;;;;;;4.32;3.40;;;21.40;58.30;;;;;;5077256;28;20039;-36
2022/06/23 08:35:47;;;;;;;3.70;3.30;;;21.40;58.00;;;;;;5063411;28;20037;-36
2022/06/23 08:38:30;;;;;;;5.38;3.55;;;21.40;58.20;;;;;;5079363;28;20029;-37
2022/06/23 08:41:21;;;;;;;4.35;3.50;;;21.40;58.20;;;;;;5068872;28;20058;-36
2022/06/23 08:43:53;;;;;;;5.68;3.53;;;21.40;58.20;;;;;;5073930;28;20068;-36
2022/06/23 08:46:34;;;;;;;5.22;3.28;;;21.40;58.30;;;;;;5078786;28;20535;-36
2022/06/23 08:49:09;;;;;;;3.28;2.80;;;21.40;58.30;;;;;;5076061;28;20024;-36
2022/06/23 08:51:44;;;;;;;4.25;3.00;;;21.40;58.40;;;;;;5075340;28;20036;-36
2022/06/23 08:54:16;;;;;;;3.63;3.30;;;21.40;58.40;;;;;;5075445;28;20036;-36
2022/06/23 08:56:44;;;;;;;3.28;2.67;;;21.40;58.50;;;;;;5070685;28;20036;-37
2022/06/23 08:59:42;;;;;;;4.15;3.22;;;21.40;58.50;;;;;;5073316;28;20025;-36
2022/06/23 09:02:19;;;;;;;3.00;2.70;;;21.40;58.50;;;;;;5069327;28;20037;-36
2022/06/23 09:04:50;;;;;;;2.85;2.45;;;21.40;58.60;;;;;;5075813;28;20036;-36
2022/06/23 09:07:40;;;;;;;3.63;2.88;;;21.40;58.60;;;;;;5070071;28;20037;-36
2022/06/23 09:10:15;;;;;;;3.10;2.80;;;21.40;58.60;;;;;;5044256;28;20040;-36
2022/06/23 09:12:49;;;;;;;3.70;2.80;;;21.40;58.60;;;;;;5076649;28;20044;-36
2022/06/23 09:15:28;;;;;;;2.83;2.40;;;21.40;58.60;;;;;;5061472;28;20063;-36
2022/06/23 09:18:02;;;;;;;3.05;2.60;;;21.50;58.70;;;;;;5074857;28;20092;-37
2022/06/23 09:20:41;;;;;;;2.80;2.42;;;21.50;58.70;;;;;;5076399;28;20024;-37
2022/06/23 09:23:32;;;;;;;4.93;3.42;;;21.40;58.60;;;;;;5075528;28;20100;-38
2022/06/23 09:26:05;;;;;;;4.80;3.55;;;21.40;58.30;;;;;;5071391;28;20040;-36
2022/06/23 09:28:57;;;;;;;3.70;3.40;;;21.40;58.10;;;;;;5072561;28;20046;-37
2022/06/23 09:31:25;;;;;;;3.72;3.33;;;21.40;58.00;;;;;;5072635;28;20028;-35
2022/06/23 09:34:12;;;;;;;3.40;3.10;;;21.40;58.20;;;;;;5067039;28;20017;-36
2022/06/23 09:37:00;;;;;;;3.78;3.38;;;21.40;58.20;;;;;;5074551;28;20032;-36
2022/06/23 09:39:26;;;;;;;3.75;3.38;;;21.30;58.20;;;;;;5076058;28;20029;-37
2022/06/23 09:41:58;;;;;;;3.47;3.17;;;21.40;58.60;;;;;;5075459;28;20044;-37
2022/06/23 09:44:40;;;;;;;3.35;3.05;;;21.40;58.70;;;;;;5073964;28;20040;-37
2022/06/23 09:47:27;;;;;;;3.17;2.70;;;21.40;58.80;;;;;;5075674;28;20040;-37
2022/06/23 09:50:47;;;;;;;3.58;3.28;;;21.50;59.00;;;;;;5070356;28;20037;-37
2022/06/23 09:53:33;;;;;;;3.67;3.30;;;21.50;58.90;;;;;;4988044;28;20089;-36
2022/06/23 09:56:08;;;;;;;3.10;2.78;;;21.50;58.90;;;;;;4977352;28;20047;-37
2022/06/23 09:58:50;;;;;;;4.22;3.20;;;21.50;59.00;;;;;;4994158;28;20031;-37
2022/06/23 10:01:53;;;;;;;3.58;3.28;;;21.50;58.90;;;;;;4988398;28;21856;-38
2022/06/23 10:04:34;;;;;;;3.75;3.00;;;21.50;59.00;;;;;;4984063;28;20058;-37
2022/06/23 10:07:09;;;;;;;3.45;2.90;;;21.50;59.00;;;;;;4988783;28;20100;-37
2022/06/23 10:10:11;;;;;;;3.20;2.90;;;21.50;59.00;;;;;;4991625;28;20030;-36
2022/06/23 10:12:45;;;;;;;3.78;2.65;;;21.60;59.00;;;;;;4951620;28;20073;-37
2022/06/23 10:15:20;;;;;;;3.10;2.80;;;21.60;59.00;;;;;;4992581;28;20555;-37
2022/06/23 10:18:00;;;;;;;3.33;2.60;;;21.60;59.00;;;;;;4989034;28;20026;-38
2022/06/23 10:21:00;;;;;;;2.90;2.65;;;21.60;59.00;;;;;;4973649;28;20039;-35
2022/06/23 10:24:03;;;;;;;2.80;2.60;;;21.60;59.10;;;;;;4970480;28;20035;-35
2022/06/23 10:26:35;;;;;;;2.90;2.60;;;21.60;59.20;;;;;;5002692;28;20125;-35
2022/06/23 10:29:07;;;;;;;2.80;2.60;;;21.60;59.20;;;;;;5068035;28;20040;-35
2022/06/23 10:32:12;;;;;;;6.15;2.97;;;21.60;59.30;;;;;;5071485;28;20033;-35
2022/06/23 10:34:49;;;;;;;3.78;2.70;;;21.60;59.30;;;;;;5075388;28;20036;-35
2022/06/23 10:37:36;;;;;;;4.18;3.17;;;21.60;59.40;;;;;;5074183;28;20028;-35
2022/06/23 10:40:33;;;;;;;2.60;2.40;;;21.60;59.50;;;;;;5075498;28;20055;-35
2022/06/23 10:43:05;;;;;;;3.03;2.70;;;21.60;59.60;;;;;;5089208;28;20056;-35
2022/06/23 10:45:50;;;;;;;2.88;2.60;;;21.70;59.60;;;;;;5077557;28;20041;-36
2022/06/23 10:48:44;;;;;;;2.90;2.60;;;21.60;59.60;;;;;;5076746;28;20029;-36
2022/06/23 10:51:13;;;;;;;3.00;2.70;;;21.60;59.70;;;;;;5080323;28;20021;-35
2022/06/23 10:53:58;;;;;;;3.30;2.67;;;21.60;59.60;;;;;;5073502;28;20053;-35
2022/06/23 10:56:53;;;;;;;2.70;2.50;;;21.60;59.70;;;;;;5076570;28;20036;-35
2022/06/23 10:59:47;;;;;;;3.00;2.70;;;21.70;59.70;;;;;;5069215;28;20067;-36
2022/06/23 11:02:41;;;;;;;2.90;2.60;;;21.70;59.70;;;;;;5074054;28;20028;-35
2022/06/23 11:05:15;;;;;;;2.92;2.40;;;21.70;59.80;;;;;;5072260;28;20092;-35
2022/06/23 11:07:51;;;;;;;2.90;2.70;;;21.70;60.00;;;;;;5076894;28;20051;-35
2022/06/23 11:10:29;;;;;;;3.58;3.03;;;21.70;60.30;;;;;;5072212;28;20032;-35
2022/06/23 11:13:08;;;;;;;2.60;2.40;;;21.70;60.20;;;;;;5076388;28;20020;-35
2022/06/23 11:15:47;;;;;;;2.60;2.40;;;21.70;60.20;;;;;;5073915;28;20084;-39
2022/06/23 11:18:35;;;;;;;3.72;2.60;;;21.70;60.10;;;;;;5090522;28;20036;-36
2022/06/23 11:21:20;;;;;;;2.72;2.47;;;21.70;60.10;;;;;;5074791;28;20043;-35
2022/06/23 11:24:06;;;;;;;2.63;2.28;;;21.80;60.90;;;;;;5072632;28;20020;-35
2022/06/23 11:27:04;;;;;;;3.70;2.40;;;21.80;60.00;;;;;;5068213;28;20135;-35
2022/06/23 11:29:54;;;;;;;2.72;2.38;;;21.80;59.90;;;;;;5040706;28;20040;-35
2022/06/23 11:33:02;;;;;;;2.58;2.38;;;21.80;60.00;;;;;;5074563;28;20100;-35
2022/06/23 11:35:51;;;;;;;2.88;2.45;;;21.80;60.10;;;;;;5073082;28;20021;-35
2022/06/23 11:38:30;;;;;;;2.35;2.10;;;21.80;60.00;;;;;;5074126;28;20042;-35
2022/06/23 11:41:06;;;;;;;2.20;2.00;;;21.80;60.20;;;;;;5069334;28;20063;-35
2022/06/23 11:44:08;;;;;;;2.47;2.28;;;21.80;60.20;;;;;;5070344;28;20131;-35
2022/06/23 11:46:38;;;;;;;2.55;2.35;;;21.80;60.20;;;;;;5071736;28;20037;-36
2022/06/23 11:49:13;;;;;;;2.72;2.47;;;21.80;60.20;;;;;;5074257;28;20044;-36
2022/06/23 11:51:55;;;;;;;2.30;2.10;;;21.90;60.10;;;;;;5073941;28;20059;-35
2022/06/23 11:54:43;;;;;;;2.80;2.53;;;21.90;60.10;;;;;;5074362;28;20035;-34
2022/06/23 11:57:37;;;;;;;2.28;2.08;;;21.90;60.10;;;;;;5070723;28;20032;-35
2022/06/23 12:00:10;;;;;;;3.08;2.72;;;21.90;60.10;;;;;;5075403;28;20033;-35
2022/06/23 12:03:01;;;;;;;2.30;2.05;;;21.90;60.10;;;;;;5054359;28;20514;-34
2022/06/23 12:05:30;;;;;;;2.40;2.20;;;21.90;60.10;;;;;;5072688;28;20044;-34
2022/06/23 12:08:14;;;;;;;2.08;1.88;;;21.90;60.10;;;;;;5072572;28;20031;-35
2022/06/23 12:10:40;;;;;;;2.55;2.17;;;21.90;60.40;;;;;;5068768;28;20815;-45
2022/06/23 12:13:06;;;;;;;2.08;1.90;;;21.90;60.50;;;;;;5074994;28;20028;-36
2022/06/23 12:15:34;;;;;;;2.28;1.90;;;21.90;61.00;;;;;;5074505;28;20028;-35
2022/06/23 12:18:25;;;;;;;2.35;2.15;;;21.90;61.00;;;;;;5068656;28;20221;-36
2022/06/23 12:20:53;;;;;;;2.42;2.20;;;21.90;61.00;;;;;;5070869;28;20035;-36
2022/06/23 12:23:40;;;;;;;2.20;2.00;;;22.00;61.10;;;;;;5051414;28;20028;-36
2022/06/23 12:26:12;;;;;;;2.50;2.23;;;22.00;61.00;;;;;;5069591;28;20044;-36
2022/06/23 12:28:58;;;;;;;2.75;2.13;;;22.10;60.80;;;;;;5071194;28;20288;-36
2022/06/23 12:31:34;;;;;;;2.45;2.25;;;22.10;60.70;;;;;;5057208;28;20047;-35
2022/06/23 12:34:27;;;;;;;2.90;2.38;;;22.10;60.60;;;;;;5076712;28;20032;-35
2022/06/23 12:36:59;;;;;;;2.30;2.00;;;22.10;60.80;;;;;;5069396;28;20039;-35
2022/06/23 12:40:06;;;;;;;2.20;1.98;;;22.10;60.80;;;;;;5074254;28;20029;-35
2022/06/23 12:42:50;;;;;;;2.65;2.10;;;22.10;60.80;;;;;;5075569;28;20040;-36
2022/06/23 12:45:47;;;;;;;2.45;2.25;;;22.10;60.90;;;;;;5069547;28;20100;-35
2022/06/23 12:48:31;;;;;;;2.47;2.28;;;22.10;60.90;;;;;;5058585;28;20495;-36
2022/06/23 12:51:25;;;;;;;2.80;2.35;;;22.10;60.90;;;;;;5068004;28;20033;-35
2022/06/23 12:54:06;;;;;;;1.98;1.80;;;22.10;61.00;;;;;;5070456;28;20028;-35
2022/06/23 12:56:41;;;;;;;3.53;2.17;;;22.10;61.10;;;;;;5073317;28;20051;-36
2022/06/23 12:59:19;;;;;;;2.33;2.13;;;22.10;61.10;;;;;;5074103;28;20466;-36
2022/06/23 13:01:57;;;;;;;2.20;2.00;;;22.10;61.10;;;;;;5072164;28;20045;-36
2022/06/23 13:04:42;;;;;;;2.47;2.28;;;22.10;61.10;;;;;;5068883;28;20037;-36
2022/06/23 13:07:17;;;;;;;2.85;2.08;;;22.20;61.30;;;;;;5068256;28;20508;-35
2022/06/23 13:09:59;;;;;;;2.15;1.95;;;22.10;61.20;;;;;;5069538;28;20042;-36
2022/06/23 13:12:41;;;;;;;2.42;2.17;;;22.20;61.30;;;;;;5074488;28;20032;-36
2022/06/23 13:15:31;;;;;;;2.63;2.40;;;22.20;61.40;;;;;;5069842;28;20056;-36
2022/06/23 13:18:36;;;;;;;3.15;2.25;;;22.20;61.50;;;;;;5068969;28;20031;-39
2022/06/23 13:21:19;;;;;;;2.50;2.30;;;22.20;61.50;;;;;;5074329;28;20032;-36
2022/06/23 13:23:57;;;;;;;2.65;2.13;;;22.20;61.80;;;;;;5068732;28;20033;-35
2022/06/23 13:26:33;;;;;;;2.22;2.03;;;22.20;62.20;;;;;;5075175;28;20056;-36
2022/06/23 13:29:12;;;;;;;2.60;2.40;;;22.20;62.40;;;;;;5076599;28;20051;-36
2022/06/23 13:31:50;;;;;;;3.08;2.78;;;22.20;62.30;;;;;;5075664;28;20088;-35
2022/06/23 13:34:27;;;;;;;3.67;3.38;;;22.30;61.80;;;;;;5073631;28;20099;-35
2022/06/23 13:37:24;;;;;;;4.07;3.47;;;22.30;61.00;;;;;;5089650;28;20082;-35
2022/06/23 13:40:18;;;;;;;3.40;3.10;;;22.30;60.60;;;;;;5079177;28;20052;-36
2022/06/23 13:43:26;;;;;;;3.92;3.38;;;22.30;60.70;;;;;;5071401;28;20122;-35
2022/06/23 13:46:03;;;;;;;4.28;3.88;;;22.30;60.90;;;;;;5018243;28;20466;-36
2022/06/23 13:48:47;;;;;;;3.60;3.30;;;22.30;61.10;;;;;;5003220;28;20045;-35
2022/06/23 13:51:49;;;;;;;4.10;3.70;;;22.30;61.30;;;;;;5020239;28;20037;-35
2022/06/23 13:54:15;;;;;;;4.50;4.10;;;22.30;60.80;;;;;;4945531;29;20083;-35
2022/06/23 13:56:45;;;;;;;4.80;4.40;;;22.30;60.30;;;;;;4961169;29;20034;-35
2022/06/23 13:59:20;;;;;;;4.93;4.43;;;22.40;60.10;;;;;;4959611;29;20035;-36
2022/06/23 14:02:01;;;;;;;3.90;3.45;;;22.40;60.30;;;;;;4961249;29;20034;-35
2022/06/23 14:04:35;;;;;;;4.32;3.92;;;22.40;60.60;;;;;;4961488;29;20047;-36